Time;durP1;ratioP1;P1;durP2;ratioP2;P2;SDS_P1;SDS_P2;PMS_P1;PMS_P2;Temp;Humidity;BMP_temperature;BMP_pressure;BME280_temperature;BME280_humidity;BME280_pressure;Samples;Min_cycle;Max_cycle;Signal;HPM_P1;HPM_P2
2020/12/16 00:03:19;;;;;;;6.63;5.40;;;20.40;36.20;;;;;;8259121;28;20456;-46
2020/12/16 00:07:20;;;;;;;7.00;4.90;;;20.40;36.10;;;;;;8272193;28;20030;-46
2020/12/16 00:11:21;;;;;;;8.10;5.53;;;20.40;36.20;;;;;;8272196;28;20414;-45
2020/12/16 00:15:21;;;;;;;7.37;4.97;;;20.40;36.40;;;;;;8294824;28;20308;-46
2020/12/16 00:19:22;;;;;;;7.57;6.10;;;20.40;36.30;;;;;;8283503;28;20465;-47
2020/12/16 00:23:23;;;;;;;7.70;5.40;;;20.30;35.60;;;;;;8259323;28;20041;-46
2020/12/16 00:27:23;;;;;;;7.20;5.47;;;20.10;36.10;;;;;;8288462;28;20062;-46
2020/12/16 00:31:24;;;;;;;7.47;5.47;;;20.10;35.70;;;;;;8296059;28;20395;-46
2020/12/16 00:35:29;;;;;;;6.23;5.13;;;20.10;35.50;;;;;;8301972;28;20052;-45
2020/12/16 00:39:29;;;;;;;6.50;5.10;;;20.10;35.40;;;;;;8297796;28;20045;-46
2020/12/16 00:43:29;;;;;;;9.50;4.73;;;20.10;35.40;;;;;;8295909;28;20042;-45
2020/12/16 00:47:34;;;;;;;8.10;4.37;;;20.10;35.40;;;;;;8281676;28;20049;-47
2020/12/16 00:51:35;;;;;;;7.20;4.53;;;20.00;35.30;;;;;;8291893;28;20084;-44
2020/12/16 00:55:35;;;;;;;8.87;5.47;;;20.00;35.30;;;;;;8273248;28;20380;-45
2020/12/16 00:59:36;;;;;;;6.27;4.50;;;20.00;35.30;;;;;;8297444;28;20054;-46
2020/12/16 01:03:37;;;;;;;6.33;4.73;;;20.00;35.30;;;;;;8270548;28;20053;-47
2020/12/16 01:07:41;;;;;;;5.63;4.32;;;20.00;35.30;;;;;;8267310;28;20023;-48
2020/12/16 01:11:42;;;;;;;6.78;4.60;;;19.90;35.30;;;;;;8267575;28;20034;-47
2020/12/16 01:15:42;;;;;;;6.13;4.27;;;19.90;35.30;;;;;;8262417;28;20415;-46
2020/12/16 01:19:43;;;;;;;6.50;4.57;;;19.90;35.20;;;;;;8273672;28;20048;-45
2020/12/16 01:23:46;;;;;;;5.22;4.40;;;19.90;35.30;;;;;;8278908;28;20399;-46
2020/12/16 01:27:59;;;;;;;6.53;3.90;;;19.90;35.30;;;;;;8266590;28;20039;-46
2020/12/16 01:31:59;;;;;;;5.95;4.13;;;19.90;35.30;;;;;;8264054;28;20400;-45
2020/12/16 01:36:00;;;;;;;6.63;4.33;;;19.80;35.20;;;;;;8263252;28;20046;-46
2020/12/16 01:40:02;;;;;;;5.73;4.53;;;19.80;35.20;;;;;;8261987;28;20396;-47
2020/12/16 01:44:14;;;;;;;6.72;4.43;;;19.80;35.20;;;;;;8277457;28;20122;-46
2020/12/16 01:48:15;;;;;;;5.50;4.40;;;19.80;35.20;;;;;;8246053;28;20097;-45
2020/12/16 01:52:19;;;;;;;6.50;4.57;;;19.70;35.20;;;;;;8253730;28;20066;-46
2020/12/16 01:56:22;;;;;;;5.15;4.03;;;19.70;35.10;;;;;;8262961;28;20046;-45
2020/12/16 02:00:24;;;;;;;7.88;4.70;;;19.70;35.20;;;;;;8262864;28;20038;-46
2020/12/16 02:04:29;;;;;;;5.85;4.03;;;19.70;35.20;;;;;;8272479;28;20061;-46
2020/12/16 02:08:30;;;;;;;7.57;4.60;;;19.70;35.10;;;;;;8279195;28;20040;-46
2020/12/16 02:12:35;;;;;;;5.95;4.35;;;19.70;35.20;;;;;;8262056;28;20471;-47
2020/12/16 02:16:37;;;;;;;5.22;4.20;;;19.60;35.10;;;;;;8260810;28;20046;-49
2020/12/16 02:20:37;;;;;;;;;;;19.60;35.10;;;;;;8263975;28;20392;-50
2020/12/16 02:25:03;;;;;;;6.00;4.10;;;19.60;35.10;;;;;;8297938;28;19956;-46
2020/12/16 02:29:05;;;;;;;5.70;4.15;;;19.60;35.10;;;;;;8285973;28;20046;-47
2020/12/16 02:33:06;;;;;;;5.55;3.67;;;19.50;35.10;;;;;;8261705;28;20066;-46
2020/12/16 02:37:06;;;;;;;4.73;3.87;;;19.50;35.10;;;;;;8288520;28;20053;-47
2020/12/16 02:41:07;;;;;;;5.00;3.90;;;19.50;35.00;;;;;;8285547;28;20046;-47
2020/12/16 02:45:08;;;;;;;5.23;3.90;;;19.50;35.10;;;;;;8261139;28;20034;-47
2020/12/16 02:49:08;;;;;;;5.33;4.53;;;19.50;35.10;;;;;;8258861;28;20396;-49
2020/12/16 02:53:09;;;;;;;5.20;4.00;;;19.50;35.10;;;;;;8274142;28;20045;-46
2020/12/16 02:57:09;;;;;;;6.13;4.57;;;19.50;35.10;;;;;;8293359;28;20045;-46
2020/12/16 03:01:11;;;;;;;6.03;4.07;;;19.40;35.00;;;;;;8266718;28;20415;-46
2020/12/16 03:05:11;;;;;;;5.38;4.15;;;19.40;35.00;;;;;;8261233;28;20559;-47
2020/12/16 03:09:12;;;;;;;6.20;4.10;;;19.40;35.00;;;;;;8282230;28;20045;-46
2020/12/16 03:13:13;;;;;;;4.80;3.90;;;19.40;35.00;;;;;;8266827;28;20088;-47
2020/12/16 03:17:13;;;;;;;5.17;4.40;;;19.40;35.10;;;;;;8283605;28;20443;-47
2020/12/16 03:21:24;;;;;;;6.00;4.47;;;19.40;35.00;;;;;;8282126;28;20191;-46
2020/12/16 03:25:24;;;;;;;5.13;4.10;;;19.30;35.00;;;;;;8259835;28;20038;-46
2020/12/16 03:29:25;;;;;;;5.43;4.13;;;19.30;35.00;;;;;;8275665;28;20087;-47
2020/12/16 03:33:25;;;;;;;6.10;4.07;;;19.30;35.00;;;;;;8292646;28;20113;-46
2020/12/16 03:37:26;;;;;;;5.83;4.30;;;19.30;35.10;;;;;;8295534;28;20046;-46
2020/12/16 03:41:26;;;;;;;7.07;4.00;;;19.30;35.10;;;;;;8292433;28;20041;-46
2020/12/16 03:45:27;;;;;;;5.83;3.70;;;19.30;35.00;;;;;;8292952;28;20041;-45
2020/12/16 03:49:27;;;;;;;6.27;4.50;;;19.20;35.10;;;;;;8266483;28;20029;-45
2020/12/16 03:53:28;;;;;;;5.93;4.10;;;19.20;35.00;;;;;;8296667;28;20029;-46
2020/12/16 03:57:29;;;;;;;4.47;3.43;;;19.20;35.00;;;;;;8292181;28;20046;-46
2020/12/16 04:01:29;;;;;;;5.13;4.03;;;19.20;35.00;;;;;;8296817;28;20038;-47
2020/12/16 04:05:29;;;;;;;5.73;4.00;;;19.10;35.00;;;;;;8298760;28;20030;-46
2020/12/16 04:09:30;;;;;;;4.87;4.37;;;19.20;35.10;;;;;;8278988;28;20041;-45
2020/12/16 04:13:30;;;;;;;4.67;3.40;;;19.10;35.00;;;;;;8296413;28;20034;-46
2020/12/16 04:17:32;;;;;;;6.20;3.83;;;19.10;35.00;;;;;;8298366;28;20042;-46
2020/12/16 04:21:33;;;;;;;4.03;3.38;;;19.10;35.00;;;;;;8272103;28;20069;-45
2020/12/16 04:25:33;;;;;;;5.93;4.13;;;19.10;34.90;;;;;;8298317;28;20038;-45
2020/12/16 04:29:34;;;;;;;5.80;3.93;;;19.10;34.90;;;;;;8302502;28;20108;-46
2020/12/16 04:33:35;;;;;;;5.97;3.60;;;19.10;35.00;;;;;;8271857;28;20042;-46
2020/12/16 04:37:35;;;;;;;5.10;4.10;;;19.10;34.90;;;;;;8297705;28;20045;-45
2020/12/16 04:41:36;;;;;;;5.47;3.87;;;19.10;34.90;;;;;;8281074;28;20053;-46
2020/12/16 04:45:40;;;;;;;4.67;3.50;;;19.10;34.90;;;;;;8267779;28;20096;-46
2020/12/16 04:49:41;;;;;;;5.88;3.63;;;19.00;34.90;;;;;;8264931;28;20061;-45
2020/12/16 04:53:42;;;;;;;5.33;3.90;;;19.00;34.90;;;;;;8282398;28;20038;-46
2020/12/16 04:57:51;;;;;;;5.32;4.00;;;19.10;34.90;;;;;;8294056;28;20495;-47
2020/12/16 05:01:52;;;;;;;4.10;3.53;;;19.00;34.90;;;;;;8263924;28;20038;-45
2020/12/16 05:05:52;;;;;;;5.33;3.93;;;19.10;34.90;;;;;;8268786;28;20069;-46
2020/12/16 05:09:53;;;;;;;4.83;3.67;;;19.00;34.90;;;;;;8262119;28;20050;-47
2020/12/16 05:14:08;;;;;;;5.23;3.50;;;19.00;34.90;;;;;;8264579;28;20042;-45
2020/12/16 05:18:09;;;;;;;3.67;3.08;;;19.00;34.90;;;;;;8264252;28;20499;-46
2020/12/16 05:22:28;;;;;;;;;;;19.00;34.90;;;;;;8272117;28;20057;-46
2020/12/16 05:26:29;;;;;;;4.60;3.75;;;19.00;34.90;;;;;;8282778;28;19992;-46
2020/12/16 05:30:29;;;;;;;4.57;3.67;;;19.00;34.90;;;;;;8263768;28;20030;-45
2020/12/16 05:34:30;;;;;;;4.97;3.87;;;18.90;34.90;;;;;;8261835;28;20037;-45
2020/12/16 05:38:30;;;;;;;4.67;3.60;;;19.00;34.90;;;;;;8263565;28;20054;-46
2020/12/16 05:42:31;;;;;;;4.53;3.40;;;18.90;34.90;;;;;;8291897;28;20037;-47
2020/12/16 05:46:33;;;;;;;4.90;3.42;;;19.00;34.90;;;;;;8293829;28;20037;-45
2020/12/16 05:50:38;;;;;;;4.53;3.80;;;18.90;34.90;;;;;;8279406;28;20514;-46
2020/12/16 05:54:39;;;;;;;3.72;3.20;;;19.00;34.90;;;;;;8285802;28;20026;-46
2020/12/16 05:58:39;;;;;;;3.83;3.22;;;18.90;34.90;;;;;;8267192;28;20189;-47
2020/12/16 06:02:42;;;;;;;5.10;3.77;;;18.90;34.90;;;;;;8262667;28;20178;-46
2020/12/16 06:06:42;;;;;;;4.43;3.83;;;18.90;34.90;;;;;;8260897;28;20151;-46
2020/12/16 06:10:46;;;;;;;4.73;3.53;;;18.90;34.90;;;;;;8272261;28;20430;-47
2020/12/16 06:14:53;;;;;;;4.20;3.30;;;18.90;34.90;;;;;;8294642;28;20034;-46
2020/12/16 06:19:00;;;;;;;4.47;3.50;;;18.90;34.90;;;;;;8294429;28;20042;-45
2020/12/16 06:23:02;;;;;;;3.53;2.88;;;18.90;34.80;;;;;;8261377;28;20129;-45
2020/12/16 06:27:07;;;;;;;3.78;3.13;;;18.90;34.90;;;;;;8282138;28;20037;-46
2020/12/16 06:31:29;;;;;;;5.18;3.90;;;18.80;34.80;;;;;;8291205;28;20078;-46
2020/12/16 06:35:29;;;;;;;;;;;18.80;34.90;;;;;;8294289;28;20053;-46
2020/12/16 06:39:38;;;;;;;3.43;2.80;;;18.80;34.90;;;;;;8298424;28;19956;-46
2020/12/16 06:43:41;;;;;;;3.97;3.17;;;18.80;35.40;;;;;;8292483;28;20442;-46
2020/12/16 06:47:42;;;;;;;4.22;3.20;;;18.80;34.90;;;;;;8276410;28;20042;-46
2020/12/16 06:51:45;;;;;;;4.63;3.50;;;18.70;34.90;;;;;;8259478;28;20038;-46
2020/12/16 06:56:04;;;;;;;4.90;3.58;;;18.70;35.00;;;;;;8265240;28;20043;-45
2020/12/16 07:00:04;;;;;;;4.03;3.15;;;18.70;35.00;;;;;;8260748;28;20050;-49
2020/12/16 07:04:12;;;;;;;4.13;3.37;;;18.70;35.00;;;;;;8257658;28;20630;-45
2020/12/16 07:08:27;;;;;;;3.72;3.08;;;18.70;35.00;;;;;;8259617;28;20049;-47
2020/12/16 07:12:30;;;;;;;4.03;3.30;;;18.70;35.00;;;;;;8283246;28;20034;-47
2020/12/16 07:16:34;;;;;;;3.35;3.03;;;18.60;34.90;;;;;;8286646;28;20046;-45
2020/12/16 07:20:34;;;;;;;4.38;3.15;;;18.70;35.00;;;;;;8258635;28;20121;-46
2020/12/16 07:24:36;;;;;;;4.67;3.67;;;18.60;35.00;;;;;;8257121;28;20038;-45
2020/12/16 07:28:37;;;;;;;;;;;18.60;35.00;;;;;;8259296;28;20049;-46
2020/12/16 07:32:38;;;;;;;3.65;3.20;;;18.60;35.00;;;;;;8258659;28;19910;-47
2020/12/16 07:36:39;;;;;;;3.87;3.10;;;18.60;35.00;;;;;;8285497;28;20132;-46
2020/12/16 07:40:40;;;;;;;4.13;3.13;;;18.60;35.00;;;;;;8267919;28;20030;-45
2020/12/16 07:44:44;;;;;;;4.70;3.27;;;18.60;35.00;;;;;;8287303;28;20080;-46
2020/12/16 07:48:45;;;;;;;5.15;3.38;;;18.60;35.00;;;;;;8236222;28;20651;-46
2020/12/16 07:52:52;;;;;;;3.72;3.03;;;18.60;35.00;;;;;;8262614;28;20042;-46
2020/12/16 07:56:52;;;;;;;4.32;3.22;;;18.60;35.00;;;;;;8258139;28;20142;-46
2020/12/16 08:01:08;;;;;;;3.60;2.93;;;18.60;35.00;;;;;;8283766;28;20184;-46
2020/12/16 08:05:14;;;;;;;5.75;3.10;;;18.50;35.00;;;;;;8290709;28;20026;-46
2020/12/16 08:09:21;;;;;;;4.28;3.35;;;18.50;35.00;;;;;;8290293;28;20038;-47
2020/12/16 08:13:23;;;;;;;4.13;2.97;;;18.50;35.00;;;;;;8268845;28;20125;-46
2020/12/16 08:17:24;;;;;;;4.18;3.10;;;18.50;35.00;;;;;;8275605;28;20042;-45
2020/12/16 08:21:25;;;;;;;4.13;3.07;;;18.50;35.00;;;;;;8257860;28;20038;-45
2020/12/16 08:25:26;;;;;;;3.83;3.15;;;18.50;35.00;;;;;;8266420;28;20080;-45
2020/12/16 08:29:28;;;;;;;5.93;3.77;;;18.50;35.00;;;;;;8294462;28;20034;-44
2020/12/16 08:33:30;;;;;;;6.45;3.55;;;18.50;35.00;;;;;;8290159;28;20125;-45
2020/12/16 08:37:33;;;;;;;4.40;3.50;;;18.40;35.00;;;;;;8264809;28;20164;-45
2020/12/16 08:41:35;;;;;;;5.00;3.63;;;18.50;35.00;;;;;;8289759;28;20034;-45
2020/12/16 08:45:36;;;;;;;3.97;3.20;;;18.40;35.00;;;;;;8289437;28;20040;-45
2020/12/16 08:49:36;;;;;;;4.17;3.07;;;18.50;35.10;;;;;;8291992;28;20454;-45
2020/12/16 08:53:57;;;;;;;5.87;3.47;;;18.50;35.10;;;;;;8280169;28;20041;-47
2020/12/16 08:58:01;;;;;;;5.43;3.88;;;18.40;35.00;;;;;;8293947;28;20038;-47
2020/12/16 09:02:01;;;;;;;3.88;3.10;;;18.40;35.00;;;;;;8283986;28;20050;-46
2020/12/16 09:06:02;;;;;;;4.30;3.57;;;18.40;35.00;;;;;;8287477;28;20034;-47
2020/12/16 09:10:08;;;;;;;5.13;3.30;;;18.40;35.00;;;;;;8269529;28;20072;-45
2020/12/16 09:14:08;;;;;;;6.38;3.63;;;18.40;35.00;;;;;;8294870;28;20371;-47
2020/12/16 09:18:10;;;;;;;5.00;3.73;;;18.40;35.00;;;;;;8295618;28;20045;-46
2020/12/16 09:22:11;;;;;;;3.95;2.97;;;18.40;35.00;;;;;;8293348;28;20185;-45
2020/12/16 09:26:11;;;;;;;5.27;3.20;;;18.40;35.00;;;;;;8299227;28;20042;-49
2020/12/16 09:30:12;;;;;;;5.77;3.50;;;18.50;35.00;;;;;;8294321;28;20038;-46
2020/12/16 09:34:12;;;;;;;4.43;3.47;;;18.40;35.00;;;;;;8268468;28;20034;-48
2020/12/16 09:38:17;;;;;;;5.23;3.10;;;18.50;35.00;;;;;;8294526;28;20068;-46
2020/12/16 09:42:18;;;;;;;3.97;2.90;;;18.40;35.00;;;;;;8276244;28;20042;-46
2020/12/16 09:46:21;;;;;;;3.45;3.00;;;18.50;35.10;;;;;;8296210;28;20037;-45
2020/12/16 09:50:33;;;;;;;4.18;2.88;;;18.40;35.00;;;;;;8305199;28;20088;-46
2020/12/16 09:54:33;;;;;;;3.28;2.88;;;18.40;35.00;;;;;;8292116;28;20092;-45
2020/12/16 09:58:38;;;;;;;4.20;3.03;;;18.40;35.00;;;;;;8285644;28;20488;-46
2020/12/16 10:02:38;;;;;;;3.88;3.13;;;18.40;35.00;;;;;;8282513;28;20093;-47
2020/12/16 10:06:39;;;;;;;3.57;3.00;;;18.40;35.00;;;;;;8267739;28;20100;-46
2020/12/16 10:10:40;;;;;;;3.43;2.60;;;18.40;35.00;;;;;;8294281;28;20037;-45
2020/12/16 10:14:40;;;;;;;4.23;3.07;;;18.40;35.50;;;;;;8294574;28;20486;-47
2020/12/16 10:18:41;;;;;;;3.37;3.07;;;18.40;35.00;;;;;;8297315;28;20285;-46
2020/12/16 10:22:41;;;;;;;3.10;2.80;;;18.40;35.00;;;;;;8294442;28;20040;-47
2020/12/16 10:26:46;;;;;;;3.80;2.90;;;18.40;35.00;;;;;;8294488;28;20399;-45
2020/12/16 10:30:47;;;;;;;4.05;3.13;;;18.40;35.00;;;;;;8266608;28;20180;-46
2020/12/16 10:34:47;;;;;;;4.10;2.97;;;18.40;35.00;;;;;;8261710;28;20031;-46
2020/12/16 10:38:48;;;;;;;3.80;3.37;;;18.40;35.00;;;;;;8265965;28;20046;-47
2020/12/16 10:42:49;;;;;;;4.07;3.10;;;18.40;35.10;;;;;;8262855;28;20373;-46
2020/12/16 10:46:54;;;;;;;4.32;3.05;;;18.40;35.10;;;;;;8283368;28;20066;-46
2020/12/16 10:50:54;;;;;;;4.55;3.03;;;18.40;35.10;;;;;;8280590;28;20034;-47
2020/12/16 10:54:55;;;;;;;4.40;3.00;;;18.40;35.00;;;;;;8296261;28;20037;-46
2020/12/16 10:58:55;;;;;;;4.40;3.50;;;18.40;35.10;;;;;;8293679;28;20133;-46
2020/12/16 11:02:56;;;;;;;4.17;3.10;;;18.40;35.00;;;;;;8274174;28;20038;-45
2020/12/16 11:06:57;;;;;;;3.63;2.90;;;18.40;35.10;;;;;;8262454;28;20518;-46
2020/12/16 11:10:58;;;;;;;3.85;2.78;;;18.40;35.10;;;;;;8283006;28;20042;-46
2020/12/16 11:14:58;;;;;;;4.27;3.17;;;18.40;35.20;;;;;;8263528;28;20082;-46
2020/12/16 11:18:59;;;;;;;4.57;3.63;;;18.40;35.10;;;;;;8286586;28;20049;-46
2020/12/16 11:22:59;;;;;;;3.57;3.20;;;18.40;35.10;;;;;;8281625;28;20052;-46
2020/12/16 11:27:00;;;;;;;3.93;2.80;;;18.40;35.10;;;;;;8280131;28;20042;-45
2020/12/16 11:31:01;;;;;;;4.27;3.37;;;18.40;35.20;;;;;;8295301;28;20052;-46
2020/12/16 11:35:02;;;;;;;3.67;3.15;;;18.40;35.70;;;;;;8292730;28;20033;-46
2020/12/16 11:39:04;;;;;;;4.97;3.27;;;18.40;35.20;;;;;;8292595;28;20618;-45
2020/12/16 11:43:04;;;;;;;6.05;3.30;;;18.40;35.20;;;;;;8286431;28;20039;-46
2020/12/16 11:47:06;;;;;;;3.83;3.00;;;18.40;35.20;;;;;;8264611;28;20023;-47
2020/12/16 11:51:06;;;;;;;3.13;2.90;;;18.40;35.20;;;;;;8280274;28;20545;-46
2020/12/16 11:55:07;;;;;;;4.43;3.50;;;18.40;35.20;;;;;;8266126;28;20034;-45
2020/12/16 11:59:07;;;;;;;3.73;3.30;;;18.40;35.10;;;;;;8279744;28;20045;-47
2020/12/16 12:03:08;;;;;;;4.43;3.40;;;18.40;35.20;;;;;;8280830;28;20084;-46
2020/12/16 12:07:09;;;;;;;3.73;3.27;;;18.40;35.20;;;;;;8270348;28;20095;-46
2020/12/16 12:11:14;;;;;;;4.55;3.20;;;18.40;35.20;;;;;;8292284;28;20034;-46
2020/12/16 12:15:15;;;;;;;4.60;3.30;;;18.30;35.20;;;;;;8291837;28;20433;-46
2020/12/16 12:19:15;;;;;;;4.63;2.83;;;18.40;35.20;;;;;;8260034;28;20038;-46
2020/12/16 12:23:16;;;;;;;4.13;3.20;;;18.40;35.20;;;;;;8269699;28;20399;-46
2020/12/16 12:27:17;;;;;;;4.20;3.20;;;18.40;35.20;;;;;;8265696;28;20035;-46
2020/12/16 12:31:17;;;;;;;4.28;3.50;;;18.40;35.20;;;;;;8294211;28;20117;-46
2020/12/16 12:35:18;;;;;;;4.00;3.10;;;18.40;35.30;;;;;;8283506;28;20061;-45
2020/12/16 12:39:18;;;;;;;4.27;3.27;;;18.30;35.20;;;;;;8269727;28;20026;-46
2020/12/16 12:43:19;;;;;;;3.80;2.90;;;18.30;35.20;;;;;;8263678;28;20038;-46
2020/12/16 12:47:19;;;;;;;5.00;3.57;;;18.40;35.20;;;;;;8265513;28;20053;-46
2020/12/16 12:51:23;;;;;;;4.97;3.33;;;18.30;35.20;;;;;;8264929;28;20034;-45
2020/12/16 12:55:23;;;;;;;3.75;3.10;;;18.30;35.30;;;;;;8269798;28;20050;-46
2020/12/16 12:59:24;;;;;;;3.70;3.27;;;18.30;35.20;;;;;;8301313;28;20076;-46
2020/12/16 13:03:24;;;;;;;3.93;3.57;;;18.40;35.30;;;;;;8296960;28;20042;-45
2020/12/16 13:07:25;;;;;;;4.30;3.20;;;18.30;35.30;;;;;;8294866;28;20037;-46
2020/12/16 13:11:26;;;;;;;5.30;3.83;;;18.40;35.30;;;;;;8281320;28;20027;-46
2020/12/16 13:15:26;;;;;;;4.80;3.53;;;18.30;35.30;;;;;;8268307;28;20508;-45
2020/12/16 13:19:27;;;;;;;3.90;3.47;;;18.30;35.30;;;;;;8262453;28;20045;-46
2020/12/16 13:23:27;;;;;;;3.93;3.37;;;18.30;35.30;;;;;;8263841;28;20173;-48
2020/12/16 13:27:28;;;;;;;4.20;3.63;;;18.30;35.90;;;;;;8287760;28;20414;-46
2020/12/16 13:31:28;;;;;;;3.83;3.20;;;18.30;35.30;;;;;;8293740;28;20142;-46
2020/12/16 13:35:29;;;;;;;4.00;3.10;;;18.30;35.30;;;;;;8300082;28;20049;-46
2020/12/16 13:39:29;;;;;;;4.70;3.60;;;18.30;35.30;;;;;;8272039;28;20122;-45
2020/12/16 13:43:30;;;;;;;4.77;3.20;;;18.30;35.40;;;;;;8261754;28;20451;-45
2020/12/16 13:47:30;;;;;;;4.93;3.60;;;18.30;35.30;;;;;;8279340;28;20160;-45
2020/12/16 13:51:31;;;;;;;5.10;3.63;;;18.30;35.40;;;;;;8269040;28;20110;-43
2020/12/16 13:55:31;;;;;;;4.07;3.23;;;18.30;35.30;;;;;;8289655;28;20534;-46
2020/12/16 13:59:32;;;;;;;4.77;3.50;;;18.30;35.40;;;;;;8279090;28;20534;-48
2020/12/16 14:03:33;;;;;;;4.90;3.60;;;18.30;35.40;;;;;;8262422;28;20030;-47
2020/12/16 14:07:34;;;;;;;4.38;3.67;;;18.30;35.40;;;;;;8270498;28;20057;-45
2020/12/16 14:11:34;;;;;;;4.73;3.87;;;18.30;35.40;;;;;;8277813;28;20034;-45
2020/12/16 14:15:35;;;;;;;5.80;4.27;;;18.30;35.40;;;;;;8281666;28;20041;-45
2020/12/16 14:19:35;;;;;;;5.20;4.43;;;18.30;35.40;;;;;;8284859;28;20089;-44
2020/12/16 14:23:37;;;;;;;6.40;4.33;;;18.30;35.40;;;;;;8261111;28;20439;-45
2020/12/16 14:27:38;;;;;;;4.95;3.92;;;18.20;35.40;;;;;;8286720;28;20034;-46
2020/12/16 14:31:38;;;;;;;4.80;3.67;;;18.20;35.40;;;;;;8263119;28;20034;-45
2020/12/16 14:35:39;;;;;;;5.23;4.30;;;18.30;35.50;;;;;;8247788;28;20105;-46
2020/12/16 14:39:39;;;;;;;5.17;4.10;;;18.20;35.40;;;;;;8234233;28;20049;-45
2020/12/16 14:43:42;;;;;;;6.13;4.20;;;18.20;35.50;;;;;;8297166;28;20077;-43
2020/12/16 14:47:42;;;;;;;5.90;3.83;;;18.20;35.50;;;;;;8276158;28;20035;-47
2020/12/16 14:51:43;;;;;;;5.73;4.43;;;18.20;35.50;;;;;;8259403;28;20088;-45
2020/12/16 14:55:44;;;;;;;5.15;3.75;;;18.20;35.50;;;;;;8261129;28;20197;-43
2020/12/16 14:59:44;;;;;;;5.43;4.03;;;18.20;35.50;;;;;;8264957;28;20038;-42
2020/12/16 15:03:45;;;;;;;5.13;3.70;;;18.20;35.50;;;;;;8260508;28;20133;-42
2020/12/16 15:07:47;;;;;;;5.57;4.00;;;18.20;35.40;;;;;;8292833;28;20038;-44
2020/12/16 15:11:47;;;;;;;;;;;18.20;35.50;;;;;;8293234;28;20030;-44
2020/12/16 15:15:48;;;;;;;5.85;3.97;;;18.20;35.50;;;;;;8290963;28;19921;-44
2020/12/16 15:19:48;;;;;;;5.53;3.63;;;18.20;35.50;;;;;;8295555;28;20034;-45
2020/12/16 15:23:50;;;;;;;5.90;4.03;;;18.20;35.50;;;;;;8274314;28;20116;-42
2020/12/16 15:27:50;;;;;;;5.50;4.25;;;18.20;35.50;;;;;;8275664;28;20023;-43
2020/12/16 15:31:55;;;;;;;6.07;3.70;;;18.20;35.50;;;;;;8267240;28;20431;-43
2020/12/16 15:35:55;;;;;;;6.13;4.28;;;18.20;35.50;;;;;;8296648;28;20099;-42
2020/12/16 15:39:56;;;;;;;4.83;4.03;;;18.20;35.50;;;;;;8266229;28;20095;-43
2020/12/16 15:43:56;;;;;;;5.27;4.03;;;18.10;35.60;;;;;;8292144;28;20045;-43
2020/12/16 15:47:57;;;;;;;5.77;4.30;;;18.20;35.60;;;;;;8292042;28;20064;-44
2020/12/16 15:51:57;;;;;;;5.93;3.80;;;18.10;35.50;;;;;;8286579;28;20484;-44
2020/12/16 15:55:58;;;;;;;6.03;3.80;;;18.10;35.50;;;;;;8264307;28;20049;-44
2020/12/16 15:59:58;;;;;;;6.40;4.10;;;18.10;35.60;;;;;;8259457;28;20042;-45
2020/12/16 16:03:59;;;;;;;5.30;4.30;;;18.10;35.60;;;;;;8282055;28;20078;-46
2020/12/16 16:07:59;;;;;;;5.47;4.00;;;18.10;35.60;;;;;;8270081;28;20076;-46
2020/12/16 16:12:01;;;;;;;5.63;4.43;;;18.10;35.70;;;;;;8272859;28;20047;-44
2020/12/16 16:16:02;;;;;;;7.60;4.22;;;18.10;36.20;;;;;;8285981;28;20118;-45
2020/12/16 16:20:07;;;;;;;;;;;18.10;36.60;;;;;;8286149;28;20049;-45
2020/12/16 16:24:09;;;;;;;7.18;4.35;;;18.10;36.60;;;;;;8284422;28;19921;-45
2020/12/16 16:28:09;;;;;;;6.40;4.13;;;18.20;36.70;;;;;;8281141;28;20037;-46
2020/12/16 16:32:14;;;;;;;7.73;3.80;;;18.30;36.60;;;;;;8257854;28;20034;-45
2020/12/16 16:36:15;;;;;;;6.25;4.10;;;18.40;36.50;;;;;;8268453;28;20054;-42
2020/12/16 16:40:17;;;;;;;11.00;4.13;;;18.60;36.50;;;;;;8290963;28;20541;-45
2020/12/16 16:44:17;;;;;;;;;;;18.70;36.30;;;;;;8281869;28;20030;-43
2020/12/16 16:48:18;;;;;;;6.67;3.77;;;18.80;36.20;;;;;;8279924;28;19924;-42
2020/12/16 16:52:23;;;;;;;7.47;3.83;;;18.90;36.20;;;;;;8283560;28;20041;-45
2020/12/16 16:56:31;;;;;;;7.40;4.10;;;19.00;36.20;;;;;;8270914;28;20089;-45
2020/12/16 17:00:31;;;;;;;6.35;3.72;;;19.10;36.10;;;;;;8253128;28;20061;-42
2020/12/16 17:04:32;;;;;;;7.13;4.43;;;19.20;36.00;;;;;;8263522;28;20395;-42
2020/12/16 17:08:32;;;;;;;6.13;3.60;;;19.30;35.90;;;;;;8273402;28;20045;-42
2020/12/16 17:12:33;;;;;;;7.47;4.00;;;19.30;35.80;;;;;;8280999;28;20038;-43
2020/12/16 17:16:34;;;;;;;5.93;3.93;;;19.40;35.90;;;;;;8290850;28;20347;-45
2020/12/16 17:20:35;;;;;;;5.45;3.88;;;19.50;35.80;;;;;;8274125;28;20313;-44
2020/12/16 17:24:36;;;;;;;5.50;3.70;;;19.50;35.80;;;;;;8268911;28;20074;-44
2020/12/16 17:28:37;;;;;;;4.77;3.80;;;19.60;35.80;;;;;;8252095;28;20050;-44
2020/12/16 17:32:37;;;;;;;6.88;3.80;;;19.60;35.80;;;;;;8258214;28;20043;-44
2020/12/16 17:36:38;;;;;;;5.30;3.60;;;19.70;35.80;;;;;;8256163;28;20388;-46
2020/12/16 17:40:39;;;;;;;5.73;3.80;;;19.80;35.80;;;;;;8270633;28;20034;-43
2020/12/16 17:44:39;;;;;;;4.67;3.50;;;19.80;35.80;;;;;;8273449;28;20898;-43
2020/12/16 17:48:40;;;;;;;4.07;3.37;;;19.90;35.70;;;;;;8280866;28;20034;-43
2020/12/16 17:52:41;;;;;;;7.20;3.70;;;19.90;35.70;;;;;;8279685;28;20061;-44
2020/12/16 17:56:42;;;;;;;3.92;3.47;;;19.90;35.70;;;;;;8258099;28;20058;-45
2020/12/16 18:00:42;;;;;;;5.53;3.80;;;20.00;35.60;;;;;;8260037;28;20549;-45
2020/12/16 18:04:44;;;;;;;5.27;3.83;;;20.00;35.70;;;;;;8289336;28;20068;-46
2020/12/16 18:08:45;;;;;;;5.55;3.70;;;20.10;35.60;;;;;;8271659;28;20053;-46
2020/12/16 18:12:45;;;;;;;6.33;3.40;;;20.10;35.60;;;;;;8279560;28;20030;-46
2020/12/16 18:16:46;;;;;;;5.37;3.93;;;20.20;35.60;;;;;;8261292;28;20535;-47
2020/12/16 18:20:46;;;;;;;13.03;7.53;;;20.30;35.50;;;;;;8256875;28;20105;-47
2020/12/16 18:24:47;;;;;;;10.50;8.07;;;19.90;34.30;;;;;;8254673;28;20076;-47
2020/12/16 18:28:48;;;;;;;11.90;8.20;;;19.20;34.80;;;;;;8256763;28;20452;-49
2020/12/16 18:32:48;;;;;;;10.33;7.50;;;18.70;35.60;;;;;;8260632;28;20038;-47
2020/12/16 18:36:50;;;;;;;8.10;5.67;;;18.30;36.50;;;;;;8254073;28;20205;-44
2020/12/16 18:40:52;;;;;;;9.10;5.53;;;18.30;37.30;;;;;;8266586;28;20399;-45
2020/12/16 18:44:52;;;;;;;8.38;5.47;;;18.60;37.10;;;;;;8288485;28;20042;-44
2020/12/16 18:48:53;;;;;;;5.43;4.47;;;19.00;36.70;;;;;;8262533;28;20057;-45
2020/12/16 18:52:53;;;;;;;7.37;4.13;;;19.30;36.20;;;;;;8281911;28;20491;-47
2020/12/16 18:56:54;;;;;;;6.83;4.13;;;19.50;35.90;;;;;;8274265;28;20414;-46
2020/12/16 19:00:57;;;;;;;5.57;3.90;;;19.70;35.70;;;;;;8258981;28;20049;-48
2020/12/16 19:04:57;;;;;;;5.75;3.83;;;19.80;35.60;;;;;;8266669;28;20034;-48
2020/12/16 19:08:58;;;;;;;5.60;3.77;;;20.00;35.50;;;;;;8272368;28;20490;-46
2020/12/16 19:12:58;;;;;;;6.07;3.50;;;20.00;35.40;;;;;;8277326;28;20073;-46
2020/12/16 19:16:59;;;;;;;4.57;3.27;;;20.10;35.30;;;;;;8254778;28;20077;-46
2020/12/16 19:21:00;;;;;;;5.60;3.75;;;20.20;35.30;;;;;;8255296;28;20105;-50
2020/12/16 19:25:00;;;;;;;4.13;3.13;;;20.30;35.30;;;;;;8282202;28;20487;-46
2020/12/16 19:29:01;;;;;;;11.57;3.47;;;20.30;35.00;;;;;;8267426;28;20419;-46
2020/12/16 19:33:02;;;;;;;4.03;3.30;;;20.40;35.30;;;;;;8267136;28;20459;-50
2020/12/16 19:37:02;;;;;;;4.30;3.40;;;20.40;35.20;;;;;;8281078;28;20263;-46
2020/12/16 19:41:03;;;;;;;6.70;3.37;;;20.50;35.30;;;;;;8287181;28;20038;-47
2020/12/16 19:45:09;;;;;;;5.87;3.53;;;20.50;35.20;;;;;;8291314;28;20549;-44
2020/12/16 19:49:10;;;;;;;4.90;3.38;;;20.60;35.30;;;;;;8284975;28;20053;-47
2020/12/16 19:53:11;;;;;;;3.70;3.30;;;20.60;35.20;;;;;;8287369;28;20038;-46
2020/12/16 19:57:12;;;;;;;5.63;3.30;;;20.60;35.30;;;;;;8265098;28;20061;-47
2020/12/16 20:01:13;;;;;;;;;;;20.70;35.20;;;;;;8286998;28;20091;-50
2020/12/16 20:05:16;;;;;;;5.80;3.63;;;20.70;35.20;;;;;;8286445;28;19917;-47
2020/12/16 20:09:19;;;;;;;5.80;3.65;;;20.70;35.30;;;;;;8264132;28;20035;-46
2020/12/16 20:13:19;;;;;;;5.80;3.03;;;20.80;35.30;;;;;;8259208;28;20038;-48
2020/12/16 20:17:20;;;;;;;5.20;3.10;;;20.80;35.30;;;;;;8286903;28;20648;-48
2020/12/16 20:21:20;;;;;;;5.57;3.63;;;20.90;35.20;;;;;;8268095;28;20096;-46
2020/12/16 20:25:22;;;;;;;5.20;3.43;;;20.90;35.30;;;;;;8253016;28;20035;-47
2020/12/16 20:29:25;;;;;;;3.67;2.80;;;20.90;35.20;;;;;;8268819;28;20149;-48
2020/12/16 20:33:25;;;;;;;3.70;3.30;;;20.90;35.20;;;;;;8262991;28;20066;-45
2020/12/16 20:37:26;;;;;;;6.13;3.70;;;20.90;35.30;;;;;;8256399;28;20098;-46
2020/12/16 20:41:26;;;;;;;4.40;3.30;;;21.00;35.30;;;;;;8270119;28;20155;-48
2020/12/16 20:45:27;;;;;;;5.13;3.80;;;21.00;35.30;;;;;;8292120;28;20030;-50
2020/12/16 20:49:32;;;;;;;5.27;3.23;;;21.10;35.20;;;;;;8290013;28;20052;-50
2020/12/16 20:53:33;;;;;;;5.10;2.78;;;21.10;35.20;;;;;;8293005;28;20124;-52
2020/12/16 20:57:33;;;;;;;4.03;2.90;;;21.10;35.30;;;;;;8326693;28;20054;-45
2020/12/16 21:01:34;;;;;;;5.63;3.60;;;21.20;35.80;;;;;;8323012;28;20344;-45